createdAt,value
2019-06-08T00:00:00.498Z,0.95
2019-06-08T00:04:54.451Z,1.27
2019-06-08T00:09:48.458Z,0.90
2019-06-08T00:14:42.458Z,0.90
2019-06-08T00:19:36.408Z,0.80
2019-06-08T00:24:30.500Z,1.07
2019-06-08T00:29:24.654Z,0.90
2019-06-08T00:34:18.793Z,1.10
2019-06-08T00:39:13.271Z,1.27
2019-06-08T00:44:07.246Z,1.10
2019-06-08T00:49:01.273Z,0.90
2019-06-08T00:53:55.350Z,0.80
2019-06-08T00:58:49.322Z,1.12
2019-06-08T01:03:43.289Z,1.00
2019-06-08T01:08:37.248Z,1.07
2019-06-08T01:13:31.240Z,1.00
2019-06-08T01:18:25.909Z,1.00
2019-06-08T01:23:19.852Z,1.10
2019-06-08T01:28:13.797Z,1.25
2019-06-08T01:33:07.855Z,1.00
2019-06-08T01:38:01.818Z,1.00
2019-06-08T01:42:55.871Z,0.93
2019-06-08T01:47:49.835Z,0.95
2019-06-08T01:52:43.799Z,1.05
2019-06-08T01:57:37.751Z,0.88
2019-06-08T02:02:32.080Z,1.10
2019-06-08T02:07:26.367Z,1.10
2019-06-08T02:12:20.449Z,1.10
2019-06-08T02:17:14.415Z,1.07
2019-06-08T02:22:08.372Z,1.05
2019-06-08T02:27:02.547Z,1.20
2019-06-08T02:31:56.506Z,1.05
2019-06-08T02:36:50.556Z,1.35
2019-06-08T02:41:44.720Z,1.20
2019-06-08T02:46:40.433Z,1.65
2019-06-08T02:51:36.450Z,1.30
2019-06-08T02:56:31.985Z,1.35
2019-06-08T03:01:26.190Z,1.40
2019-06-08T03:06:21.148Z,1.80
2019-06-08T03:11:17.165Z,1.30
2019-06-08T03:16:11.121Z,1.62
2019-06-08T03:21:05.063Z,1.30
2019-06-08T03:25:59.074Z,1.70
2019-06-08T03:30:54.901Z,1.60
2019-06-08T03:35:57.191Z,1.60
2019-06-08T03:40:45.305Z,1.45
2019-06-08T03:45:40.793Z,1.80
2019-06-08T03:50:35.938Z,1.90
2019-06-08T03:55:31.191Z,1.30
2019-06-08T04:00:25.237Z,1.40
2019-06-08T04:05:19.322Z,1.50
2019-06-08T04:10:13.725Z,1.40
2019-06-08T04:15:08.080Z,1.98
2019-06-08T04:20:10.960Z,1.30
2019-06-08T04:25:01.217Z,1.52
2019-06-08T04:29:55.183Z,1.62
2019-06-08T04:34:50.033Z,1.40
2019-06-08T04:39:44.570Z,1.42
2019-06-08T04:44:40.483Z,1.92
2019-06-08T04:49:34.605Z,1.62
2019-06-08T04:54:28.669Z,1.60
2019-06-08T04:59:22.616Z,1.60
2019-06-08T05:04:16.577Z,1.82
2019-06-08T05:09:10.525Z,1.42
2019-06-08T05:14:04.692Z,1.80
2019-06-08T05:18:58.657Z,1.62
2019-06-08T05:23:58.533Z,1.80
2019-06-08T05:28:49.518Z,2.00
2019-06-08T05:33:43.697Z,1.60
2019-06-08T05:38:37.675Z,1.70
2019-06-08T05:43:31.651Z,1.90
2019-06-08T05:48:25.734Z,1.82
2019-06-08T05:53:19.764Z,1.90
2019-06-08T05:58:13.845Z,2.58
2019-06-08T06:03:08.176Z,1.82
2019-06-08T06:08:02.301Z,1.85
2019-06-08T06:12:56.378Z,1.72
2019-06-08T06:17:51.568Z,1.62
2019-06-08T06:22:45.890Z,2.00
2019-06-08T06:27:41.463Z,2.33
2019-06-08T06:32:35.539Z,1.72
2019-06-08T06:37:29.505Z,1.52
2019-06-08T06:42:24.982Z,1.90
2019-06-08T06:47:19.453Z,2.08
2019-06-08T06:52:13.412Z,1.75
2019-06-08T06:57:07.369Z,1.70
2019-06-08T07:02:01.644Z,2.00
2019-06-08T07:06:55.614Z,2.00
2019-06-08T07:11:50.885Z,1.82
2019-06-08T07:16:45.816Z,1.85
2019-06-08T07:21:42.092Z,1.80
2019-06-08T07:26:35.734Z,2.00
2019-06-08T07:31:29.688Z,1.60
2019-06-08T07:36:23.761Z,2.02
2019-06-08T07:41:17.729Z,1.70
2019-06-08T07:46:11.721Z,2.17
2019-06-08T07:51:05.690Z,1.50
2019-06-08T07:55:59.848Z,2.20
2019-06-08T08:00:54.939Z,1.92
2019-06-08T08:05:50.356Z,1.80
2019-06-08T08:10:44.390Z,1.77
2019-06-08T08:15:38.436Z,1.80
2019-06-08T08:20:32.420Z,1.65
2019-06-08T08:25:28.174Z,1.72
2019-06-08T08:30:22.487Z,1.62
2019-06-08T08:35:18.503Z,1.85
2019-06-08T08:40:12.433Z,1.87
2019-06-08T08:45:08.647Z,2.20
2019-06-08T08:50:04.220Z,1.82
2019-06-08T08:55:00.420Z,2.12
2019-06-08T08:59:56.110Z,1.62
2019-06-08T09:04:50.661Z,1.70
2019-06-08T09:09:48.051Z,1.80
2019-06-08T09:14:42.017Z,1.42
2019-06-08T09:19:38.175Z,1.55
2019-06-08T09:24:32.121Z,1.80
2019-06-08T09:29:28.746Z,1.62
2019-06-08T09:34:22.245Z,1.87
2019-06-08T09:41:15.569Z,2.05
2019-06-08T09:46:09.771Z,1.95
2019-06-08T09:51:05.645Z,1.77
2019-06-08T09:56:03.907Z,1.62
2019-06-08T10:00:57.205Z,1.72
2019-06-08T10:05:51.573Z,1.90
2019-06-08T10:10:48.224Z,1.80
2019-06-08T10:15:41.613Z,2.35
2019-06-08T10:20:38.243Z,2.00
2019-06-08T10:25:31.453Z,2.00
2019-06-08T10:30:25.413Z,2.05
2019-06-08T10:35:21.088Z,1.70
2019-06-08T10:40:18.690Z,1.77
2019-06-08T10:45:15.056Z,1.70
2019-06-08T10:50:15.423Z,1.80
2019-06-08T10:55:10.415Z,1.60
2019-06-08T11:00:17.851Z,1.67
2019-06-08T11:05:09.170Z,1.62
2019-06-08T11:10:01.891Z,1.57
2019-06-08T11:14:57.975Z,1.80
2019-06-08T11:19:51.901Z,1.60
2019-06-08T11:24:48.409Z,1.82
2019-06-08T11:29:41.854Z,1.40
2019-06-08T11:34:37.708Z,1.52
2019-06-08T11:39:31.832Z,1.60
2019-06-08T11:44:27.610Z,1.77
2019-06-08T11:49:21.806Z,1.52
2019-06-08T11:54:32.031Z,2.05
2019-06-08T11:59:14.320Z,1.67
2019-06-08T12:04:07.956Z,1.55
2019-06-08T12:09:02.706Z,1.75
2019-06-08T12:13:58.502Z,1.85
2019-06-08T12:18:52.758Z,1.70
2019-06-08T12:23:46.740Z,1.90
2019-06-08T12:28:40.825Z,1.98
2019-06-08T12:33:34.820Z,1.67
2019-06-08T12:38:32.180Z,1.82
2019-06-08T12:43:24.786Z,1.90
2019-06-08T12:48:23.467Z,1.60
2019-06-08T12:53:18.237Z,1.80
2019-06-08T12:58:12.957Z,1.85
2019-06-08T13:03:08.594Z,1.80
2019-06-08T13:08:03.463Z,2.00
2019-06-08T13:12:58.404Z,1.60
2019-06-08T13:17:52.445Z,1.95
2019-06-08T13:22:48.234Z,1.90
2019-06-08T13:27:42.531Z,1.80
2019-06-08T13:32:38.253Z,1.60
2019-06-08T13:37:32.481Z,2.08
2019-06-08T13:42:27.924Z,1.82
2019-06-08T13:47:23.112Z,1.67
2019-06-08T13:52:19.021Z,1.85
2019-06-08T13:57:13.498Z,1.50
2019-06-08T14:02:07.526Z,1.57
2019-06-08T14:07:01.470Z,1.87
2019-06-08T14:11:57.611Z,2.22
2019-06-08T14:16:51.453Z,2.10
2019-06-08T14:21:47.601Z,1.85
2019-06-08T14:26:41.402Z,1.62
2019-06-08T14:31:37.949Z,1.70
2019-06-08T14:36:31.374Z,2.08
2019-06-08T14:41:27.061Z,1.60
2019-06-08T14:46:23.147Z,1.40
2019-06-08T14:51:18.592Z,1.70
2019-06-08T14:56:12.741Z,2.02
2019-06-08T15:01:07.905Z,1.80
2019-06-08T15:06:02.249Z,2.12
2019-06-08T15:10:58.208Z,1.40
2019-06-08T15:15:52.270Z,1.40
2019-06-08T15:20:48.104Z,1.50
2019-06-08T15:25:42.655Z,1.40
2019-06-08T15:30:38.042Z,1.65
2019-06-08T15:35:32.360Z,1.50
2019-06-08T15:40:27.682Z,1.50
2019-06-08T15:45:22.122Z,1.77
2019-06-08T15:50:18.014Z,1.90
2019-06-08T15:55:12.145Z,1.90
2019-06-08T16:00:09.649Z,2.08
2019-06-08T16:05:04.677Z,1.80
2019-06-08T16:09:58.747Z,1.90
2019-06-08T16:14:52.839Z,1.90
2019-06-08T16:19:46.817Z,1.60
2019-06-08T16:24:40.791Z,1.57
2019-06-08T16:29:35.151Z,1.80
2019-06-08T16:34:29.241Z,1.80
2019-06-08T16:39:23.189Z,2.22
2019-06-08T16:44:17.175Z,1.80
2019-06-08T16:49:11.262Z,1.87
2019-06-08T16:54:05.330Z,2.02
2019-06-08T16:58:59.289Z,1.90
2019-06-08T17:03:53.295Z,1.50
2019-06-08T17:08:47.371Z,1.67
2019-06-08T17:13:41.409Z,1.75
2019-06-08T17:18:36.254Z,2.10
2019-06-08T17:23:30.716Z,1.52
2019-06-08T17:28:24.786Z,2.08
2019-06-08T17:33:18.772Z,1.70
2019-06-08T17:38:12.863Z,1.80
2019-06-08T17:43:07.344Z,3.27
2019-06-08T17:48:01.333Z,2.58
2019-06-08T17:52:55.413Z,1.67
2019-06-08T17:57:53.423Z,4.62
2019-06-08T18:02:45.478Z,4.90
2019-06-08T18:07:41.989Z,2.12
2019-06-08T18:12:38.663Z,2.55
2019-06-08T18:17:32.226Z,3.85
2019-06-08T18:22:27.146Z,1.57
2019-06-08T18:27:21.278Z,1.35
2019-06-08T18:32:15.337Z,1.50
2019-06-08T18:37:09.496Z,1.55
2019-06-08T18:42:03.479Z,1.45
2019-06-08T18:46:57.737Z,1.50
2019-06-08T18:51:52.036Z,1.37
2019-06-08T18:56:48.701Z,1.20
2019-06-08T19:01:43.217Z,1.45
2019-06-08T19:06:39.344Z,1.70
2019-06-08T19:11:33.318Z,1.47
2019-06-08T19:16:28.486Z,1.80
2019-06-08T19:21:22.645Z,1.60
2019-06-08T19:26:17.194Z,2.40
2019-06-08T19:31:11.296Z,1.98
2019-06-08T19:36:07.640Z,1.98
2019-06-08T19:41:01.378Z,1.70
2019-06-08T19:45:57.829Z,1.60
2019-06-08T19:50:54.110Z,1.40
2019-06-08T19:55:52.013Z,1.50
2019-06-08T20:00:44.259Z,1.30
2019-06-08T20:05:38.335Z,1.40
2019-06-08T20:10:32.318Z,1.20
2019-06-08T20:15:26.341Z,1.25
2019-06-08T20:20:20.391Z,1.30
2019-06-08T20:25:17.192Z,1.15
2019-06-08T20:30:12.246Z,1.40
2019-06-08T20:35:08.032Z,1.80
2019-06-08T20:40:11.159Z,2.67
2019-06-08T20:44:59.637Z,2.65
2019-06-08T20:49:53.624Z,2.47
2019-06-08T20:54:49.275Z,2.40
2019-06-08T20:59:43.650Z,2.42
2019-06-08T21:04:38.329Z,2.90
2019-06-08T21:09:32.681Z,2.87
2019-06-08T21:14:27.344Z,2.77
2019-06-08T21:19:21.619Z,2.80
2019-06-08T21:24:17.347Z,2.72
2019-06-08T21:29:11.875Z,2.55
2019-06-08T21:34:07.387Z,2.90
2019-06-08T21:39:02.611Z,2.95
2019-06-08T21:44:00.776Z,2.80
2019-06-08T21:48:53.499Z,2.77
2019-06-08T21:53:50.060Z,2.80
2019-06-08T21:58:47.111Z,3.20
2019-06-08T22:03:40.619Z,3.00
2019-06-08T22:08:34.623Z,2.90
2019-06-08T22:13:28.903Z,3.00
2019-06-08T22:18:22.860Z,3.00
2019-06-08T22:23:18.018Z,2.90
2019-06-08T22:28:12.134Z,3.10
2019-06-08T22:33:06.125Z,3.05
2019-06-08T22:38:00.935Z,3.22
2019-06-08T22:42:57.780Z,3.00
2019-06-08T22:47:52.913Z,3.33
2019-06-08T22:52:47.693Z,3.10
2019-06-08T22:57:41.765Z,3.42
2019-06-08T23:02:38.249Z,3.13
2019-06-08T23:07:32.806Z,3.20
2019-06-08T23:12:28.726Z,3.80
2019-06-08T23:17:22.820Z,3.60
2019-06-08T23:22:17.733Z,3.40
2019-06-08T23:27:11.912Z,3.80
2019-06-08T23:32:09.530Z,3.27
2019-06-08T23:37:04.509Z,3.40
2019-06-08T23:41:57.709Z,3.50
2019-06-08T23:46:52.013Z,3.30
2019-06-08T23:51:47.542Z,3.07
2019-06-08T23:56:41.639Z,3.22
